createdAt,value
2018-09-03T00:00:06.435Z,3
2018-09-03T00:03:06.616Z,3
2018-09-03T00:06:06.311Z,3
2018-09-03T00:09:06.228Z,2.9
2018-09-03T00:12:06.299Z,3
2018-09-03T00:15:06.554Z,2.9
2018-09-03T00:18:06.189Z,2.9
2018-09-03T00:21:06.424Z,3.4
2018-09-03T00:24:06.360Z,3.1
2018-09-03T00:27:06.263Z,3.2
2018-09-03T00:30:06.210Z,3
2018-09-03T00:33:06.466Z,3
2018-09-03T00:36:06.422Z,2.8
2018-09-03T00:39:06.470Z,2.8
2018-09-03T00:42:06.202Z,2.7
2018-09-03T00:45:06.457Z,2.7
2018-09-03T00:48:06.324Z,2.8
2018-09-03T00:51:06.407Z,2.8
2018-09-03T00:54:06.187Z,2.7
2018-09-03T00:57:06.226Z,2.7
2018-09-03T01:00:06.223Z,2.8
2018-09-03T01:03:06.450Z,2.8
2018-09-03T01:06:06.209Z,2.7
2018-09-03T01:09:06.389Z,2.7
2018-09-03T01:12:06.163Z,2.7
2018-09-03T01:15:06.241Z,2.7
2018-09-03T01:18:06.238Z,2.6
2018-09-03T01:21:06.320Z,2.7
2018-09-03T01:24:06.236Z,2.6
2018-09-03T01:27:06.249Z,2.6
2018-09-03T01:30:06.353Z,2.6
2018-09-03T01:33:06.142Z,2.6
2018-09-03T01:36:06.216Z,2.7
2018-09-03T01:39:06.261Z,2.6
2018-09-03T01:42:06.416Z,2.6
2018-09-03T01:45:06.465Z,2.6
2018-09-03T01:48:06.579Z,2.6
2018-09-03T01:51:06.422Z,2.6
2018-09-03T01:54:06.177Z,2.5
2018-09-03T01:57:06.457Z,2.6
2018-09-03T02:00:06.172Z,2.6
2018-09-03T02:03:06.397Z,2.6
2018-09-03T02:06:06.194Z,3.1
2018-09-03T02:09:06.313Z,2.7
2018-09-03T02:12:06.253Z,2.6
2018-09-03T02:15:06.242Z,2.6
2018-09-03T02:18:06.376Z,2.5
2018-09-03T02:21:06.305Z,2.4
2018-09-03T02:24:06.106Z,2.4
2018-09-03T02:27:06.206Z,2.5
2018-09-03T02:30:06.230Z,2.4
2018-09-03T02:33:06.307Z,2.4
2018-09-03T02:36:06.162Z,2.4
2018-09-03T02:39:06.390Z,2.4
2018-09-03T02:42:06.320Z,2.4
2018-09-03T02:45:06.471Z,2.4
2018-09-03T02:48:06.162Z,2.5
2018-09-03T02:51:06.261Z,2.4
2018-09-03T02:54:06.222Z,2.4
2018-09-03T02:57:06.386Z,2.3
2018-09-03T03:00:06.187Z,2.3
2018-09-03T03:03:06.384Z,2.4
2018-09-03T03:06:06.365Z,2.4
2018-09-03T03:09:06.158Z,2.4
2018-09-03T03:12:06.209Z,2.4
2018-09-03T03:15:06.492Z,2.4
2018-09-03T03:18:06.214Z,2.4
2018-09-03T03:21:06.170Z,2.4
2018-09-03T03:24:06.496Z,2.4
2018-09-03T03:27:06.662Z,2.4
2018-09-03T03:30:06.254Z,2.6
2018-09-03T03:33:06.344Z,2.5
2018-09-03T03:36:06.138Z,2.4
2018-09-03T03:39:06.205Z,2.4
2018-09-03T03:42:06.365Z,2.4
2018-09-03T03:45:06.320Z,2.3
2018-09-03T03:48:06.115Z,2.4
2018-09-03T03:51:06.212Z,2.4
2018-09-03T03:54:06.291Z,2.3
2018-09-03T03:57:06.249Z,2.3
2018-09-03T04:00:06.136Z,2.3
2018-09-03T04:03:06.396Z,2.3
2018-09-03T04:06:06.142Z,2.3
2018-09-03T04:09:06.291Z,2.3
2018-09-03T04:12:06.126Z,2.2
2018-09-03T04:15:06.338Z,2.3
2018-09-03T04:18:06.165Z,2.3
2018-09-03T04:21:06.279Z,2.3
2018-09-03T04:24:06.453Z,2.2
2018-09-03T04:27:06.313Z,2.3
2018-09-03T04:30:06.233Z,2.3
2018-09-03T04:33:06.304Z,2.3
2018-09-03T04:36:06.237Z,2.3
2018-09-03T04:39:06.435Z,2.3
2018-09-03T04:42:06.132Z,2.3
2018-09-03T04:45:06.311Z,2.3
2018-09-03T04:48:07.676Z,2.3
2018-09-03T04:51:06.321Z,2.3
2018-09-03T04:54:06.355Z,2.2
2018-09-03T04:57:06.392Z,2.1
2018-09-03T05:00:06.099Z,2.1
2018-09-03T05:03:06.336Z,2
2018-09-03T05:06:06.464Z,2.1
2018-09-03T05:09:06.343Z,2.2
2018-09-03T05:12:06.156Z,2.3
2018-09-03T05:15:06.524Z,2.1
2018-09-03T05:18:06.162Z,2.1
2018-09-03T05:21:06.407Z,2.1
2018-09-03T05:24:06.144Z,2.2
2018-09-03T05:27:06.391Z,2.2
2018-09-03T05:30:06.234Z,2.2
2018-09-03T05:33:06.155Z,2.2
2018-09-03T05:36:06.154Z,2.2
2018-09-03T05:39:06.385Z,2.1
2018-09-03T05:42:06.274Z,2.1
2018-09-03T05:45:06.901Z,2.1
2018-09-03T05:48:06.142Z,2.1
2018-09-03T05:51:06.305Z,2.2
2018-09-03T05:54:06.142Z,2.1
2018-09-03T05:57:06.365Z,2.3
2018-09-03T06:00:06.252Z,2.3
2018-09-03T06:03:06.502Z,2.2
2018-09-03T06:06:06.352Z,2.2
2018-09-03T06:09:06.244Z,2.2
2018-09-03T06:12:06.116Z,2.3
2018-09-03T06:15:06.321Z,2.2
2018-09-03T06:18:06.258Z,2.2
2018-09-03T06:21:06.381Z,2.1
2018-09-03T06:24:06.574Z,2.2
2018-09-03T06:27:06.219Z,2.2
2018-09-03T06:30:06.051Z,2.3
2018-09-03T06:33:06.129Z,2.2
2018-09-03T06:36:06.333Z,2.2
2018-09-03T06:39:07.562Z,2.4
2018-09-03T06:42:06.350Z,2.2
2018-09-03T06:45:06.203Z,2.2
2018-09-03T06:48:06.126Z,2.3
2018-09-03T06:51:06.239Z,2.2
2018-09-03T06:54:06.123Z,2.3
2018-09-03T06:57:06.160Z,2.2
2018-09-03T07:00:06.206Z,2.2
2018-09-03T07:03:06.107Z,2.3
2018-09-03T07:06:06.211Z,2.2
2018-09-03T07:09:06.434Z,2.5
2018-09-03T07:12:06.197Z,2.3
2018-09-03T07:15:06.324Z,2.2
2018-09-03T07:18:06.222Z,2.1
2018-09-03T07:21:06.243Z,3.2
2018-09-03T07:24:06.258Z,2.7
2018-09-03T07:27:06.382Z,2.6
2018-09-03T07:30:06.090Z,4.5
2018-09-03T07:33:06.419Z,4.2
2018-09-03T07:36:06.508Z,4.3
2018-09-03T07:39:06.580Z,4.6
2018-09-03T07:42:06.126Z,4.1
2018-09-03T07:45:06.204Z,3.8
2018-09-03T07:48:06.133Z,3.5
2018-09-03T07:51:07.207Z,3.4
2018-09-03T07:54:06.306Z,5.1
2018-09-03T07:57:06.467Z,5.9
2018-09-03T08:00:06.176Z,5.1
2018-09-03T08:03:06.267Z,4.7
2018-09-03T08:06:06.085Z,4.3
2018-09-03T08:09:06.274Z,4.1
2018-09-03T08:12:06.030Z,4.2
2018-09-03T08:15:06.169Z,3.8
2018-09-03T08:18:06.089Z,3.8
2018-09-03T08:21:06.246Z,3.9
2018-09-03T08:24:06.102Z,3.8
2018-09-03T08:27:06.346Z,3.6
2018-09-03T08:30:06.748Z,3.4
2018-09-03T08:33:06.325Z,3.4
2018-09-03T08:36:06.212Z,3.5
2018-09-03T08:39:06.074Z,3.4
2018-09-03T08:42:06.284Z,3.5
2018-09-03T08:45:06.351Z,3.5
2018-09-03T08:48:06.097Z,3.8
2018-09-03T08:51:06.326Z,3.5
2018-09-03T08:54:06.356Z,3
2018-09-03T08:57:06.396Z,3.1
2018-09-03T09:00:06.051Z,3
2018-09-03T09:03:06.303Z,3
2018-09-03T09:06:06.114Z,3.2
2018-09-03T09:09:06.261Z,2.9
2018-09-03T09:12:06.134Z,2.8
2018-09-03T09:15:06.389Z,3.5
2018-09-03T09:18:06.020Z,3.2
2018-09-03T09:21:06.359Z,3.1
2018-09-03T09:24:06.019Z,2.8
2018-09-03T09:27:06.309Z,2.9
2018-09-03T09:30:06.059Z,2.9
2018-09-03T09:33:06.286Z,2.8
2018-09-03T09:36:06.150Z,2.7
2018-09-03T09:39:06.375Z,3
2018-09-03T09:42:06.022Z,2.7
2018-09-03T09:45:06.160Z,2.6
2018-09-03T09:48:06.069Z,2.6
2018-09-03T09:51:06.327Z,2.5
2018-09-03T09:54:06.008Z,2.5
2018-09-03T09:57:06.305Z,3.1
2018-09-03T10:00:06.630Z,2.9
2018-09-03T10:03:06.467Z,2.8
2018-09-03T10:06:06.144Z,2.6
2018-09-03T10:09:06.174Z,2.5
2018-09-03T10:12:06.316Z,2.5
2018-09-03T10:15:06.265Z,2.4
2018-09-03T10:18:06.053Z,2.3
2018-09-03T10:21:06.590Z,2.5
2018-09-03T10:24:06.046Z,2.4
2018-09-03T10:27:06.214Z,2.5
2018-09-03T10:30:06.090Z,2.4
2018-09-03T10:33:06.102Z,2.4
2018-09-03T10:36:06.115Z,2.7
2018-09-03T10:39:06.357Z,2.5
2018-09-03T10:42:06.513Z,2.6
2018-09-03T10:45:06.668Z,2.4
2018-09-03T10:48:06.118Z,2.3
2018-09-03T10:51:06.428Z,2.6
2018-09-03T10:54:06.088Z,2.6
2018-09-03T10:57:06.596Z,2.5
2018-09-03T11:00:06.035Z,2.4
2018-09-03T11:03:06.268Z,2.5
2018-09-03T11:06:06.165Z,2.5
2018-09-03T11:09:06.302Z,2.5
2018-09-03T11:12:06.066Z,2.5
2018-09-03T11:15:06.295Z,2.7
2018-09-03T11:18:06.139Z,2.7
2018-09-03T11:21:06.787Z,2.7
2018-09-03T11:24:06.388Z,3.7
2018-09-03T11:27:06.156Z,3.9
2018-09-03T11:30:06.028Z,3.7
2018-09-03T11:33:06.290Z,4.8
2018-09-03T11:36:06.155Z,4.1
2018-09-03T11:39:06.220Z,4
2018-09-03T11:42:06.106Z,4.5
2018-09-03T11:45:06.388Z,4.8
2018-09-03T11:48:06.084Z,4.6
2018-09-03T11:51:06.136Z,4.8
2018-09-03T11:54:06.281Z,4.6
2018-09-03T11:57:06.215Z,5.4
2018-09-03T12:00:06.221Z,4.7
2018-09-03T12:03:06.182Z,5.9
2018-09-03T12:06:06.278Z,4.7
2018-09-03T12:09:06.293Z,4.9
2018-09-03T12:12:06.081Z,4.4
2018-09-03T12:15:06.395Z,4.1
2018-09-03T12:18:06.240Z,3.7
2018-09-03T12:21:07.098Z,4.3
2018-09-03T12:24:06.030Z,5.3
2018-09-03T12:27:06.201Z,5.7
2018-09-03T12:30:06.022Z,4.5
2018-09-03T12:33:06.007Z,5
2018-09-03T12:36:05.995Z,5.3
2018-09-03T12:39:06.174Z,5.1
2018-09-03T12:42:06.090Z,5.5
2018-09-03T12:45:06.210Z,5.6
2018-09-03T12:48:06.032Z,4.8
2018-09-03T12:51:06.934Z,4.1
2018-09-03T12:54:06.076Z,3.5
2018-09-03T12:57:06.100Z,3.5
2018-09-03T13:00:06.100Z,3.3
2018-09-03T13:03:06.768Z,3.6
2018-09-03T13:06:06.658Z,3.9
2018-09-03T13:09:06.311Z,3.3
2018-09-03T13:12:06.531Z,4.1
2018-09-03T13:15:06.099Z,3.7
2018-09-03T13:18:06.006Z,3.7
2018-09-03T13:21:06.134Z,3.5
2018-09-03T13:24:06.129Z,3.1
2018-09-03T13:27:06.176Z,3.2
2018-09-03T13:30:06.200Z,4.3
2018-09-03T13:33:06.111Z,3.7
2018-09-03T13:36:07.103Z,3.4
2018-09-03T13:39:06.453Z,3.4
2018-09-03T13:42:07.010Z,3.6
2018-09-03T13:45:06.369Z,3.2
2018-09-03T13:48:06.738Z,2.9
2018-09-03T13:51:06.007Z,2.7
2018-09-03T13:54:06.078Z,2.7
2018-09-03T13:57:06.305Z,2.7
2018-09-03T14:00:06.054Z,2.7
2018-09-03T14:03:06.217Z,2.7
2018-09-03T14:06:06.076Z,2.8
2018-09-03T14:09:06.080Z,2.9
2018-09-03T14:12:06.015Z,2.6
2018-09-03T14:15:06.271Z,2.6
2018-09-03T14:18:05.949Z,2.9
2018-09-03T14:21:06.379Z,3.1
2018-09-03T14:24:06.082Z,2.8
2018-09-03T14:27:06.356Z,2.8
2018-09-03T14:30:06.023Z,2.6
2018-09-03T14:33:06.261Z,2.8
2018-09-03T14:36:05.964Z,3.7
2018-09-03T14:39:06.091Z,3.3
2018-09-03T14:42:06.011Z,2.9
2018-09-03T14:45:06.481Z,2.8
2018-09-03T14:48:05.984Z,3.2
2018-09-03T14:51:06.091Z,2.9
2018-09-03T14:54:06.058Z,2.8
2018-09-03T14:57:06.201Z,2.8
2018-09-03T15:00:05.976Z,2.6
2018-09-03T15:03:05.956Z,2.4
2018-09-03T15:06:05.995Z,2.4
2018-09-03T15:09:06.010Z,2.4
2018-09-03T15:12:05.983Z,2.3
2018-09-03T15:15:07.121Z,2.8
2018-09-03T15:18:05.999Z,2.6
2018-09-03T15:21:06.113Z,2.5
2018-09-03T15:24:05.961Z,2.6
2018-09-03T15:27:06.104Z,2.6
2018-09-03T15:30:06.417Z,2.5
2018-09-03T15:33:06.215Z,2.5
2018-09-03T15:36:06.968Z,2.6
2018-09-03T15:39:07.781Z,2.7
2018-09-03T15:42:05.957Z,2.5
2018-09-03T15:45:06.519Z,2.5
2018-09-03T15:48:06.199Z,2.4
2018-09-03T15:51:06.599Z,2.5
2018-09-03T15:54:07.325Z,2.8
2018-09-03T15:57:06.203Z,2.7
2018-09-03T16:00:06.046Z,2.6
2018-09-03T16:03:07.634Z,2.5
2018-09-03T16:06:06.251Z,2.4
2018-09-03T16:09:06.967Z,2.4
2018-09-03T16:12:06.037Z,2.4
2018-09-03T16:15:06.252Z,2.3
2018-09-03T16:18:05.993Z,2.3
2018-09-03T16:21:06.424Z,2.4
2018-09-03T16:24:05.981Z,2.4
2018-09-03T16:27:06.265Z,2.3
2018-09-03T16:30:06.175Z,2.7
2018-09-03T16:33:06.227Z,2.5
2018-09-03T16:36:06.426Z,2.9
2018-09-03T16:39:06.286Z,2.7
2018-09-03T16:42:07.615Z,2.6
2018-09-03T16:45:06.181Z,2.4
2018-09-03T16:48:06.851Z,2.3
2018-09-03T16:51:06.044Z,3.2
2018-09-03T16:54:06.214Z,2.8
2018-09-03T16:57:06.108Z,2.6
2018-09-03T17:00:06.153Z,2.6
2018-09-03T17:03:06.050Z,2.4
2018-09-03T17:06:06.239Z,3.1
2018-09-03T17:09:06.282Z,3.1
2018-09-03T17:12:06.531Z,3.2
2018-09-03T17:15:06.276Z,3.9
2018-09-03T17:18:06.173Z,4.1
2018-09-03T17:21:06.198Z,4.2
2018-09-03T17:24:06.246Z,3.6
2018-09-03T17:27:06.193Z,3.7
2018-09-03T17:30:06.354Z,4.4
2018-09-03T17:33:06.205Z,4.6
2018-09-03T17:36:06.075Z,4.3
2018-09-03T17:39:06.010Z,3.6
2018-09-03T17:42:06.219Z,4.7
2018-09-03T17:45:06.067Z,4.7
2018-09-03T17:48:06.617Z,4.1
2018-09-03T17:51:05.948Z,4.6
2018-09-03T17:54:06.169Z,3.6
2018-09-03T17:57:06.266Z,3.9
2018-09-03T18:00:06.188Z,3.2
2018-09-03T18:03:06.305Z,4.7
2018-09-03T18:06:06.015Z,3.9
2018-09-03T18:09:06.053Z,4.1
2018-09-03T18:12:06.220Z,3.8
2018-09-03T18:15:06.327Z,3.4
2018-09-03T18:18:06.180Z,4.2
2018-09-03T18:21:06.062Z,4.4
2018-09-03T18:24:06.153Z,4.1
2018-09-03T18:27:06.190Z,3.5
2018-09-03T18:30:06.497Z,4.4
2018-09-03T18:33:05.975Z,4.1
2018-09-03T18:36:07.534Z,4
2018-09-03T18:39:06.643Z,3.6
2018-09-03T18:42:06.325Z,4.5
2018-09-03T18:45:05.978Z,4.3
2018-09-03T18:48:06.318Z,3.6
2018-09-03T18:51:05.995Z,4
2018-09-03T18:54:06.236Z,4.9
2018-09-03T18:57:06.140Z,5.7
2018-09-03T19:00:06.630Z,6.8
2018-09-03T19:03:06.033Z,8.9
2018-09-03T19:06:06.723Z,7.8
2018-09-03T19:09:06.369Z,6.7
2018-09-03T19:12:06.893Z,6
2018-09-03T19:15:06.246Z,5.2
2018-09-03T19:18:06.008Z,5.6
2018-09-03T19:21:05.981Z,5.6
2018-09-03T19:24:06.187Z,5.3
2018-09-03T19:27:05.986Z,5.6
2018-09-03T19:30:05.987Z,5.2
2018-09-03T19:33:05.875Z,4.6
2018-09-03T19:36:06.105Z,5.1
2018-09-03T19:39:06.080Z,4.7
2018-09-03T19:42:06.298Z,5.3
2018-09-03T19:45:06.080Z,4.6
2018-09-03T19:48:05.969Z,4.3
2018-09-03T19:51:06.260Z,4.9
2018-09-03T19:54:05.995Z,5.9
2018-09-03T19:57:06.178Z,6
2018-09-03T20:00:06.148Z,5.7
2018-09-03T20:03:06.223Z,5.7
2018-09-03T20:06:06.434Z,5
2018-09-03T20:09:06.234Z,4.4
2018-09-03T20:12:06.282Z,4.7
2018-09-03T20:15:06.276Z,4.4
2018-09-03T20:18:06.341Z,5
2018-09-03T20:21:06.060Z,4.7
2018-09-03T20:24:05.963Z,4.7
2018-09-03T20:27:06.174Z,4.4
2018-09-03T20:30:05.987Z,4.3
2018-09-03T20:33:06.117Z,3.9
2018-09-03T20:36:06.083Z,3.9
2018-09-03T20:39:06.108Z,4.4
2018-09-03T20:42:05.976Z,4
2018-09-03T20:45:06.178Z,3.5
2018-09-03T20:48:06.275Z,4
2018-09-03T20:51:05.884Z,3.5
2018-09-03T20:54:06.198Z,3.5
2018-09-03T20:57:06.159Z,3.2
2018-09-03T21:00:06.036Z,2.9
2018-09-03T21:03:06.174Z,3.5
2018-09-03T21:06:06.015Z,3.7
2018-09-03T21:09:05.885Z,4.4
2018-09-03T21:12:06.110Z,4
2018-09-03T21:15:06.188Z,4.1
2018-09-03T21:18:05.925Z,3.7
2018-09-03T21:21:05.999Z,3.3
2018-09-03T21:24:06.061Z,4
2018-09-03T21:27:05.910Z,3.5
2018-09-03T21:30:06.586Z,3.3
2018-09-03T21:33:05.769Z,3.1
2018-09-03T21:36:06.084Z,3.2
2018-09-03T21:39:07.016Z,3
2018-09-03T21:42:06.024Z,3
2018-09-03T21:45:06.023Z,2.9
2018-09-03T21:48:06.191Z,3.2
2018-09-03T21:51:06.008Z,3.3
2018-09-03T21:54:06.243Z,3.5
2018-09-03T21:57:06.499Z,3.4
2018-09-03T22:00:06.164Z,3.6
2018-09-03T22:03:05.982Z,3.2
2018-09-03T22:06:06.165Z,3.1
2018-09-03T22:09:06.346Z,3.1
2018-09-03T22:12:06.091Z,3.1
2018-09-03T22:15:05.967Z,3
2018-09-03T22:18:06.110Z,3
2018-09-03T22:21:05.803Z,2.9
2018-09-03T22:24:06.042Z,3.4
2018-09-03T22:27:05.937Z,3.1
2018-09-03T22:30:06.106Z,3.2
2018-09-03T22:33:06.118Z,3.6
2018-09-03T22:36:06.091Z,3.5
2018-09-03T22:39:05.882Z,3.2
2018-09-03T22:42:06.128Z,3
2018-09-03T22:45:06.098Z,2.9
2018-09-03T22:48:06.174Z,2.7
2018-09-03T22:51:06.188Z,3
2018-09-03T22:54:06.135Z,2.8
2018-09-03T22:57:06.153Z,2.9
2018-09-03T23:00:06.296Z,2.8
2018-09-03T23:03:06.008Z,2.9
2018-09-03T23:06:06.010Z,2.6
2018-09-03T23:09:06.088Z,2.6
2018-09-03T23:12:06.055Z,2.7
2018-09-03T23:15:06.035Z,2.7
2018-09-03T23:18:06.188Z,3
2018-09-03T23:21:05.944Z,2.7
2018-09-03T23:24:06.338Z,2.6
2018-09-03T23:27:06.114Z,2.6
2018-09-03T23:30:06.061Z,2.5
2018-09-03T23:33:06.115Z,2.8
2018-09-03T23:36:05.994Z,2.6
2018-09-03T23:39:06.371Z,2.7
2018-09-03T23:42:06.114Z,2.6
2018-09-03T23:45:06.200Z,2.6
2018-09-03T23:48:05.933Z,2.6
2018-09-03T23:51:05.906Z,3.4
2018-09-03T23:54:05.936Z,3.1
2018-09-03T23:57:06.132Z,2.8
